Time;durP1;ratioP1;P1;durP2;ratioP2;P2;SDS_P1;SDS_P2;PMS_P1;PMS_P2;Temp;Humidity;BMP_temperature;BMP_pressure;BME280_temperature;BME280_humidity;BME280_pressure;Samples;Min_cycle;Max_cycle;Signal;HPM_P1;HPM_P2
2021/04/25 00:02:24;;;;;;;27.48;13.13;;;10.00;68.90;;;;;;5047600;28;20029;-83
2021/04/25 00:04:49;;;;;;;23.42;12.52;;;10.00;68.80;;;;;;5046473;28;20031;-83
2021/04/25 00:07:15;;;;;;;21.60;13.43;;;10.00;68.90;;;;;;5046381;28;20037;-83
2021/04/25 00:09:41;;;;;;;27.35;13.82;;;9.90;69.00;;;;;;5029829;28;20503;-83
2021/04/25 00:12:07;;;;;;;24.80;12.55;;;9.80;69.20;;;;;;5047729;28;20021;-85
2021/04/25 00:14:33;;;;;;;21.48;12.90;;;9.80;69.40;;;;;;5030146;28;20046;-83
2021/04/25 00:16:59;;;;;;;27.17;14.18;;;9.70;69.50;;;;;;5046471;28;20041;-83
2021/04/25 00:19:25;;;;;;;19.63;11.88;;;9.60;69.50;;;;;;5029867;28;20025;-84
2021/04/25 00:21:51;;;;;;;20.63;12.57;;;9.50;69.70;;;;;;5047497;28;20471;-84
2021/04/25 00:24:17;;;;;;;26.80;14.10;;;9.50;70.00;;;;;;5029620;28;20041;-83
2021/04/25 00:26:42;;;;;;;27.58;13.52;;;9.50;70.20;;;;;;5046588;28;20017;-84
2021/04/25 00:29:08;;;;;;;26.20;14.40;;;9.40;70.30;;;;;;5029676;28;20068;-84
2021/04/25 00:31:34;;;;;;;25.90;12.57;;;9.40;70.40;;;;;;5046980;28;20025;-83
2021/04/25 00:34:00;;;;;;;29.00;16.05;;;9.40;70.40;;;;;;5051626;28;20048;-84
2021/04/25 00:36:26;;;;;;;35.72;19.60;;;9.40;70.60;;;;;;5051343;28;20087;-83
2021/04/25 00:38:53;;;;;;;31.10;17.48;;;9.40;70.70;;;;;;5033811;28;20033;-83
2021/04/25 00:41:19;;;;;;;31.65;17.77;;;9.40;70.90;;;;;;5050165;28;20082;-84
2021/04/25 00:43:45;;;;;;;34.67;16.67;;;9.40;71.00;;;;;;5050021;28;20045;-84
2021/04/25 00:46:10;;;;;;;24.45;14.73;;;9.40;71.10;;;;;;5017034;28;20036;-83
2021/04/25 00:48:36;;;;;;;37.85;15.30;;;9.40;71.20;;;;;;5033442;28;20033;-84
2021/04/25 00:51:07;;;;;;;28.33;13.90;;;9.30;71.30;;;;;;5049995;28;20116;-83
2021/04/25 00:53:32;;;;;;;20.40;14.27;;;9.30;71.60;;;;;;5050122;28;20025;-84
2021/04/25 00:55:58;;;;;;;22.83;13.18;;;9.20;71.70;;;;;;5033370;28;20036;-84
2021/04/25 00:58:24;;;;;;;26.90;13.88;;;9.20;71.90;;;;;;5049931;28;20032;-84
2021/04/25 01:00:50;;;;;;;20.98;12.98;;;9.10;72.10;;;;;;5033156;28;20033;-83
2021/04/25 01:03:20;;;;;;;19.75;12.90;;;9.10;72.30;;;;;;5033205;28;20072;-84
2021/04/25 01:05:45;;;;;;;;;;;9.10;72.40;;;;;;5050103;28;20064;-83
2021/04/25 01:08:11;;;;;;;27.13;13.43;;;9.10;71.80;;;;;;5033035;28;19964;-84
2021/04/25 01:10:37;;;;;;;32.40;13.90;;;9.10;71.70;;;;;;5033050;28;20028;-83
2021/04/25 01:13:03;;;;;;;27.50;15.30;;;9.00;72.20;;;;;;5016388;28;20032;-85
2021/04/25 01:15:29;;;;;;;25.20;16.90;;;8.90;72.80;;;;;;5033134;28;20104;-84
2021/04/25 01:17:55;;;;;;;33.55;17.60;;;8.90;73.30;;;;;;5049625;28;20111;-84
2021/04/25 01:20:22;;;;;;;31.27;14.50;;;8.90;73.50;;;;;;5049380;28;20121;-84
2021/04/25 01:22:49;;;;;;;28.15;15.63;;;8.90;73.80;;;;;;5049260;28;20116;-84
2021/04/25 01:25:18;;;;;;;27.08;14.35;;;8.90;73.80;;;;;;5033189;28;20021;-85
2021/04/25 01:27:44;;;;;;;29.45;15.95;;;8.90;73.90;;;;;;5050989;28;20029;-84
2021/04/25 01:30:12;;;;;;;24.50;15.13;;;8.90;73.80;;;;;;5049666;28;20025;-83
2021/04/25 01:32:42;;;;;;;26.50;13.88;;;8.90;74.00;;;;;;5033027;28;20043;-84
2021/04/25 01:35:09;;;;;;;23.77;14.05;;;8.90;73.90;;;;;;5033254;28;20553;-84
2021/04/25 01:37:35;;;;;;;23.70;14.07;;;8.90;73.90;;;;;;5049152;28;20406;-84
2021/04/25 01:40:03;;;;;;;27.77;15.55;;;8.90;74.10;;;;;;5049268;28;20059;-84
2021/04/25 01:42:28;;;;;;;25.20;14.10;;;8.90;74.30;;;;;;5048883;28;20415;-84
2021/04/25 01:44:54;;;;;;;25.95;13.20;;;8.90;74.20;;;;;;5048236;28;20164;-84
2021/04/25 01:47:20;;;;;;;19.70;13.80;;;8.90;74.30;;;;;;5048923;28;20438;-84
2021/04/25 01:49:46;;;;;;;23.40;12.50;;;8.80;74.40;;;;;;5049179;28;20064;-84
2021/04/25 01:52:11;;;;;;;21.80;13.20;;;8.80;74.60;;;;;;5048931;28;20091;-84
2021/04/25 01:54:37;;;;;;;20.65;13.13;;;8.80;74.70;;;;;;5032479;28;20093;-84
2021/04/25 01:57:03;;;;;;;23.67;12.30;;;8.90;74.80;;;;;;5032260;28;20075;-84
2021/04/25 01:59:29;;;;;;;20.50;13.02;;;8.80;74.90;;;;;;5050033;28;20430;-83
2021/04/25 02:01:55;;;;;;;20.30;12.85;;;8.80;75.00;;;;;;5031757;28;20097;-84
2021/04/25 02:04:21;;;;;;;21.40;13.30;;;8.80;75.00;;;;;;5048349;28;20068;-84
2021/04/25 02:06:46;;;;;;;23.00;12.93;;;8.80;75.20;;;;;;5015756;28;20510;-83
2021/04/25 02:09:13;;;;;;;25.92;14.07;;;8.80;75.40;;;;;;5049863;28;20369;-85
2021/04/25 02:11:39;;;;;;;22.65;12.65;;;8.70;75.70;;;;;;5048713;28;20049;-84
2021/04/25 02:14:05;;;;;;;20.60;13.18;;;8.60;75.90;;;;;;5015848;28;20098;-84
2021/04/25 02:16:31;;;;;;;21.30;12.93;;;8.60;76.20;;;;;;5048600;28;20040;-83
2021/04/25 02:18:57;;;;;;;18.77;12.88;;;8.60;76.30;;;;;;5048645;28;20029;-83
2021/04/25 02:21:23;;;;;;;20.92;14.57;;;8.60;76.30;;;;;;5048430;28;20032;-84
2021/04/25 02:23:49;;;;;;;23.40;13.88;;;8.60;76.30;;;;;;5031941;28;20025;-84
2021/04/25 02:26:14;;;;;;;28.35;14.18;;;8.60;76.40;;;;;;5031821;28;20039;-85
2021/04/25 02:28:40;;;;;;;19.25;13.18;;;8.60;76.50;;;;;;5031906;28;20076;-84
2021/04/25 02:31:06;;;;;;;24.65;13.73;;;8.50;76.50;;;;;;5048111;28;20376;-84
2021/04/25 02:33:32;;;;;;;23.80;13.90;;;8.50;76.50;;;;;;5048561;28;20037;-84
2021/04/25 02:35:57;;;;;;;25.70;16.38;;;8.50;76.60;;;;;;5031489;28;20483;-84
2021/04/25 02:38:23;;;;;;;20.90;13.70;;;8.50;76.70;;;;;;5031790;28;20288;-84
2021/04/25 02:40:49;;;;;;;25.90;14.95;;;8.50;76.60;;;;;;5031727;28;20452;-84
2021/04/25 02:43:14;;;;;;;28.15;13.73;;;8.50;76.80;;;;;;5031445;28;20136;-83
2021/04/25 02:45:40;;;;;;;27.33;13.80;;;8.50;76.80;;;;;;5048425;28;20514;-83
2021/04/25 02:48:07;;;;;;;25.27;15.57;;;8.50;77.10;;;;;;5031371;28;20522;-83
2021/04/25 02:50:37;;;;;;;23.30;14.25;;;8.50;77.40;;;;;;5049164;28;20021;-84
2021/04/25 02:53:03;;;;;;;24.45;16.13;;;8.50;77.60;;;;;;5047796;28;20074;-84
2021/04/25 02:55:29;;;;;;;22.52;14.02;;;8.40;77.60;;;;;;5049281;28;20115;-85
2021/04/25 02:57:55;;;;;;;25.38;14.68;;;8.40;78.00;;;;;;5031511;28;20128;-83
2021/04/25 03:00:24;;;;;;;24.33;13.18;;;8.30;78.20;;;;;;5047848;28;20427;-84
2021/04/25 03:02:50;;;;;;;21.05;13.80;;;8.30;78.20;;;;;;5049101;28;20025;-84
2021/04/25 03:05:16;;;;;;;23.85;15.30;;;8.30;78.00;;;;;;5047919;28;20044;-83
2021/04/25 03:07:43;;;;;;;21.23;13.18;;;8.30;77.90;;;;;;5048022;28;20411;-83
2021/04/25 03:10:09;;;;;;;24.98;14.93;;;8.30;78.00;;;;;;5031053;28;20368;-83
2021/04/25 03:12:36;;;;;;;19.90;12.93;;;8.30;78.00;;;;;;5031427;28;20514;-84
2021/04/25 03:15:07;;;;;;;24.40;13.25;;;8.20;78.10;;;;;;5047649;28;20025;-84
2021/04/25 03:17:33;;;;;;;24.75;14.30;;;8.20;78.30;;;;;;5050010;28;20052;-84
2021/04/25 03:19:59;;;;;;;25.73;14.93;;;8.20;78.50;;;;;;5048458;28;20033;-84
2021/04/25 03:22:24;;;;;;;29.08;18.48;;;8.20;78.50;;;;;;5030954;28;20033;-83
2021/04/25 03:24:50;;;;;;;26.73;15.88;;;8.20;78.60;;;;;;5030816;28;20508;-84
2021/04/25 03:27:16;;;;;;;29.65;18.17;;;8.20;78.60;;;;;;5014159;28;20107;-83
2021/04/25 03:29:42;;;;;;;22.42;17.60;;;8.20;78.50;;;;;;5030473;28;20017;-84
2021/04/25 03:32:07;;;;;;;24.02;17.83;;;8.10;78.50;;;;;;5030671;28;20159;-83
2021/04/25 03:34:33;;;;;;;26.50;18.80;;;8.10;78.50;;;;;;5014051;28;20484;-84
2021/04/25 03:36:59;;;;;;;28.75;21.38;;;8.10;78.70;;;;;;5047004;28;20488;-83
2021/04/25 03:39:25;;;;;;;31.92;20.75;;;8.00;78.80;;;;;;5030261;28;20401;-83
2021/04/25 03:41:51;;;;;;;27.20;20.88;;;8.00;78.80;;;;;;5046677;28;20035;-83
2021/04/25 03:44:16;;;;;;;35.47;24.42;;;8.00;78.80;;;;;;5030121;28;20128;-84
2021/04/25 03:46:43;;;;;;;54.65;38.80;;;7.90;79.30;;;;;;5030393;28;20053;-84
2021/04/25 03:49:09;;;;;;;47.97;29.95;;;7.90;79.10;;;;;;5013969;28;20071;-84
2021/04/25 03:51:35;;;;;;;37.90;25.20;;;7.80;79.50;;;;;;5046726;28;20032;-83
2021/04/25 03:54:01;;;;;;;33.80;22.42;;;7.80;80.00;;;;;;5046645;28;20032;-84
2021/04/25 03:56:27;;;;;;;31.73;20.48;;;7.70;79.90;;;;;;5046670;28;20449;-84
2021/04/25 03:58:52;;;;;;;28.67;18.63;;;7.70;80.00;;;;;;5030090;28;20443;-83
2021/04/25 04:01:18;;;;;;;27.90;17.95;;;7.80;80.00;;;;;;5030056;28;20089;-83
2021/04/25 04:03:44;;;;;;;28.05;17.98;;;7.80;79.90;;;;;;5029983;28;20047;-84
2021/04/25 04:06:10;;;;;;;26.77;17.45;;;7.70;80.30;;;;;;5045988;28;20036;-84
2021/04/25 04:08:35;;;;;;;25.52;18.40;;;7.80;79.90;;;;;;5013827;28;20060;-84
2021/04/25 04:11:01;;;;;;;28.75;19.02;;;7.70;80.10;;;;;;5046525;28;20020;-84
2021/04/25 04:13:27;;;;;;;29.92;18.30;;;7.70;80.20;;;;;;5046377;28;20115;-83
2021/04/25 04:15:53;;;;;;;22.90;17.42;;;7.70;80.20;;;;;;5046821;28;20033;-83
2021/04/25 04:18:18;;;;;;;23.13;14.70;;;7.70;80.30;;;;;;5013515;28;20044;-84
2021/04/25 04:20:44;;;;;;;25.30;14.98;;;7.60;80.60;;;;;;5030022;28;20060;-84
2021/04/25 04:23:10;;;;;;;24.13;16.65;;;7.50;80.80;;;;;;5046434;28;20036;-83
2021/04/25 04:25:35;;;;;;;28.83;16.92;;;7.60;81.10;;;;;;5046304;28;20029;-83
2021/04/25 04:28:01;;;;;;;25.65;16.70;;;7.50;81.10;;;;;;5046366;28;20472;-83
2021/04/25 04:30:27;;;;;;;23.05;15.73;;;7.60;81.10;;;;;;5029760;28;20032;-83
2021/04/25 04:32:53;;;;;;;19.55;14.55;;;7.60;81.10;;;;;;5029822;28;20435;-83
2021/04/25 04:35:19;;;;;;;23.27;14.55;;;7.60;81.30;;;;;;5046152;28;20113;-84
2021/04/25 04:37:45;;;;;;;21.88;14.25;;;7.50;81.50;;;;;;5046424;28;20033;-83
2021/04/25 04:40:11;;;;;;;19.95;13.25;;;7.50;81.70;;;;;;5013115;28;20390;-83
2021/04/25 04:42:37;;;;;;;22.20;14.57;;;7.50;81.70;;;;;;5029338;28;20078;-84
2021/04/25 04:45:04;;;;;;;19.20;12.35;;;7.50;81.50;;;;;;5029662;28;20488;-83
2021/04/25 04:47:29;;;;;;;20.60;14.70;;;7.50;81.50;;;;;;5046176;28;20431;-83
2021/04/25 04:49:55;;;;;;;25.60;13.40;;;7.50;82.00;;;;;;5047537;28;20100;-83
2021/04/25 04:52:21;;;;;;;25.33;13.23;;;7.50;81.60;;;;;;5046162;28;20476;-83
2021/04/25 04:54:47;;;;;;;26.65;13.80;;;7.50;81.90;;;;;;5013066;28;20036;-83
2021/04/25 04:57:15;;;;;;;20.70;13.27;;;7.50;82.10;;;;;;5029758;28;20034;-83
2021/04/25 04:59:41;;;;;;;23.17;12.50;;;7.50;82.10;;;;;;5029998;28;20120;-83
2021/04/25 05:02:07;;;;;;;22.35;13.02;;;7.50;82.20;;;;;;5029745;28;20553;-84
2021/04/25 05:04:33;;;;;;;25.13;13.57;;;7.50;82.20;;;;;;5046096;28;20060;-83
2021/04/25 05:06:59;;;;;;;26.38;12.88;;;7.60;82.30;;;;;;5029560;28;20506;-83
2021/04/25 05:09:24;;;;;;;25.27;13.70;;;7.60;82.20;;;;;;5029617;28;20027;-83
2021/04/25 05:11:50;;;;;;;23.05;13.85;;;7.60;82.20;;;;;;5029449;28;20040;-84
2021/04/25 05:14:16;;;;;;;19.17;13.00;;;7.60;82.30;;;;;;5046177;28;20029;-83
2021/04/25 05:16:41;;;;;;;21.38;13.50;;;7.60;82.50;;;;;;5046104;28;20037;-84
2021/04/25 05:19:07;;;;;;;22.83;12.25;;;7.60;82.50;;;;;;5030955;28;20104;-83
2021/04/25 05:21:33;;;;;;;25.23;12.55;;;7.70;82.50;;;;;;5049735;28;20399;-83
2021/04/25 05:23:58;;;;;;;18.17;11.52;;;7.70;82.50;;;;;;5016324;28;20043;-84
2021/04/25 05:26:24;;;;;;;15.93;11.55;;;7.70;82.40;;;;;;5032975;28;20419;-84
2021/04/25 05:28:50;;;;;;;16.40;10.68;;;7.70;82.40;;;;;;5032730;28;20574;-83
2021/04/25 05:31:15;;;;;;;17.75;11.75;;;7.70;82.40;;;;;;5016315;28;20029;-84
2021/04/25 05:33:41;;;;;;;17.30;10.73;;;7.70;82.50;;;;;;5032790;28;20032;-84
2021/04/25 05:36:07;;;;;;;16.58;11.48;;;7.70;82.40;;;;;;5032882;28;20033;-83
2021/04/25 05:38:32;;;;;;;20.02;11.60;;;7.80;82.50;;;;;;5032796;28;20025;-83
2021/04/25 05:40:58;;;;;;;25.05;14.05;;;7.80;82.50;;;;;;5015984;28;20048;-84
2021/04/25 05:43:24;;;;;;;16.33;11.20;;;7.90;82.50;;;;;;5050284;28;20056;-83
2021/04/25 05:45:50;;;;;;;15.32;10.82;;;7.90;82.60;;;;;;5016032;28;20041;-83
2021/04/25 05:48:15;;;;;;;18.00;11.45;;;7.90;82.80;;;;;;5032771;28;20044;-83
2021/04/25 05:50:41;;;;;;;15.98;11.63;;;8.00;82.80;;;;;;5032502;28;20471;-84
2021/04/25 05:53:07;;;;;;;16.40;10.80;;;8.00;82.70;;;;;;5032524;28;20101;-85
2021/04/25 05:55:33;;;;;;;23.23;11.88;;;8.10;82.70;;;;;;5048851;28;20055;-83
2021/04/25 05:57:59;;;;;;;16.58;10.00;;;8.10;82.90;;;;;;5032674;28;20037;-84
2021/04/25 06:00:29;;;;;;;17.35;10.38;;;8.20;82.90;;;;;;5048712;28;20025;-84
2021/04/25 06:02:55;;;;;;;18.08;10.75;;;8.30;82.80;;;;;;5032499;28;20548;-84
2021/04/25 06:05:20;;;;;;;15.90;11.10;;;8.30;82.50;;;;;;5015657;28;20033;-84
2021/04/25 06:07:50;;;;;;;15.55;10.07;;;8.40;82.60;;;;;;5032097;28;20029;-84
2021/04/25 06:10:16;;;;;;;19.00;11.05;;;8.50;82.70;;;;;;5050070;28;20017;-83
2021/04/25 06:12:42;;;;;;;16.60;10.38;;;8.60;82.80;;;;;;5048570;28;20100;-83
2021/04/25 06:15:08;;;;;;;20.48;11.05;;;8.70;82.90;;;;;;5048638;28;20103;-83
2021/04/25 06:17:35;;;;;;;18.30;11.43;;;8.80;82.90;;;;;;5048491;28;20021;-83
2021/04/25 06:20:00;;;;;;;17.23;10.50;;;8.90;82.80;;;;;;5049627;28;20032;-85
2021/04/25 06:22:26;;;;;;;19.45;11.27;;;9.00;82.80;;;;;;5048579;28;20025;-83
2021/04/25 06:24:55;;;;;;;17.17;10.95;;;9.10;83.00;;;;;;5031795;28;20572;-84
2021/04/25 06:27:25;;;;;;;22.17;12.50;;;9.20;83.10;;;;;;5048109;28;20021;-83
2021/04/25 06:29:54;;;;;;;27.60;12.23;;;9.30;83.20;;;;;;5047866;28;20396;-83
2021/04/25 06:32:20;;;;;;;25.93;14.30;;;9.40;83.20;;;;;;5048374;28;20031;-84
2021/04/25 06:34:46;;;;;;;27.80;14.65;;;9.50;83.30;;;;;;5049794;28;20278;-83
2021/04/25 06:37:12;;;;;;;25.48;14.88;;;9.60;83.70;;;;;;5031839;28;20037;-84
2021/04/25 06:39:38;;;;;;;35.40;16.08;;;9.70;84.10;;;;;;5049253;28;20105;-83
2021/04/25 06:42:04;;;;;;;31.25;15.82;;;9.80;84.50;;;;;;5047452;28;20053;-84
2021/04/25 06:44:30;;;;;;;27.67;15.93;;;9.90;85.00;;;;;;5030979;28;20037;-83
2021/04/25 06:46:56;;;;;;;30.52;16.92;;;10.00;85.40;;;;;;5014692;28;20021;-82
2021/04/25 06:49:22;;;;;;;39.38;17.77;;;10.20;86.00;;;;;;5047867;28;20055;-83
2021/04/25 06:51:49;;;;;;;39.25;18.55;;;10.40;86.50;;;;;;5047479;28;20379;-84
2021/04/25 06:54:15;;;;;;;32.00;17.17;;;10.50;87.00;;;;;;5047189;28;20029;-83
2021/04/25 06:56:42;;;;;;;31.70;15.95;;;10.70;87.50;;;;;;5030837;28;20029;-84
2021/04/25 06:59:08;;;;;;;42.42;18.25;;;10.80;87.70;;;;;;5047419;28;20492;-83
2021/04/25 07:01:34;;;;;;;34.67;15.48;;;11.00;88.00;;;;;;5030735;28;20171;-83
2021/04/25 07:03:59;;;;;;;38.28;17.58;;;11.10;88.40;;;;;;5014482;28;20124;-83
2021/04/25 07:06:25;;;;;;;33.45;16.73;;;11.20;88.80;;;;;;5047483;28;20408;-82
2021/04/25 07:08:51;;;;;;;40.90;16.42;;;11.30;89.10;;;;;;5047380;28;20029;-83
2021/04/25 07:11:17;;;;;;;33.70;16.10;;;11.50;89.40;;;;;;5048706;28;20017;-83
2021/04/25 07:13:43;;;;;;;34.28;15.73;;;11.70;90.00;;;;;;5048130;28;20391;-83
2021/04/25 07:16:08;;;;;;;36.45;14.65;;;12.30;90.80;;;;;;5048122;28;20021;-83
2021/04/25 07:18:34;;;;;;;26.08;12.90;;;13.50;90.70;;;;;;5048310;28;20029;-83
2021/04/25 07:21:00;;;;;;;35.90;13.65;;;14.60;86.60;;;;;;5030116;28;20108;-83
2021/04/25 07:23:26;;;;;;;31.75;14.00;;;15.20;82.70;;;;;;5048060;28;20040;-84
2021/04/25 07:25:56;;;;;;;31.83;14.57;;;15.40;80.40;;;;;;5030353;28;20051;-84
2021/04/25 07:28:24;;;;;;;;;;;15.70;79.90;;;;;;5048718;28;20013;-82
2021/04/25 07:30:52;;;;;;;28.08;12.10;;;15.80;79.00;;;;;;5030215;28;19939;-84
2021/04/25 07:33:19;;;;;;;34.65;13.85;;;15.70;77.90;;;;;;5046925;28;20040;-83
2021/04/25 07:35:45;;;;;;;32.47;12.02;;;15.60;77.70;;;;;;5030269;28;20066;-82
2021/04/25 07:38:11;;;;;;;35.08;14.23;;;15.70;77.90;;;;;;5048295;28;20063;-84
2021/04/25 07:40:38;;;;;;;35.40;12.82;;;15.60;76.70;;;;;;5030086;28;20036;-83
2021/04/25 07:43:05;;;;;;;30.15;12.55;;;16.00;78.10;;;;;;5045992;28;20055;-83
2021/04/25 07:45:31;;;;;;;33.28;11.55;;;17.10;77.90;;;;;;5046451;28;20033;-83
2021/04/25 07:47:57;;;;;;;33.35;13.25;;;18.30;75.10;;;;;;5046751;28;20025;-83
2021/04/25 07:50:23;;;;;;;22.52;11.73;;;18.90;72.30;;;;;;5046378;28;20029;-84
2021/04/25 07:52:49;;;;;;;22.10;11.80;;;19.70;70.60;;;;;;5047917;28;20027;-83
2021/04/25 07:55:15;;;;;;;20.55;11.50;;;20.50;67.50;;;;;;5046967;28;20040;-84
2021/04/25 07:57:40;;;;;;;19.48;10.90;;;20.80;64.70;;;;;;5047887;28;20029;-84
2021/04/25 08:00:08;;;;;;;26.33;11.60;;;21.20;63.20;;;;;;5013302;28;20048;-83
2021/04/25 08:02:34;;;;;;;27.77;10.77;;;21.50;61.80;;;;;;5029888;28;20116;-83
2021/04/25 08:05:00;;;;;;;20.90;9.50;;;21.80;60.70;;;;;;5045340;28;20025;-83
2021/04/25 08:07:26;;;;;;;23.35;10.90;;;22.00;60.20;;;;;;5029568;28;20025;-83
2021/04/25 08:09:51;;;;;;;20.00;8.82;;;22.60;59.30;;;;;;5046073;28;20036;-82
2021/04/25 08:12:17;;;;;;;24.17;10.93;;;23.20;57.90;;;;;;5046145;28;20032;-83
2021/04/25 08:14:43;;;;;;;21.10;9.55;;;23.70;56.80;;;;;;5046221;28;20071;-80
2021/04/25 08:17:09;;;;;;;21.75;9.40;;;23.90;55.00;;;;;;5029752;28;20033;-81
2021/04/25 08:19:35;;;;;;;20.00;8.45;;;23.70;53.90;;;;;;5013254;28;20047;-81
2021/04/25 08:22:00;;;;;;;17.95;9.00;;;23.60;53.30;;;;;;5029167;28;20036;-80
2021/04/25 08:24:26;;;;;;;23.10;10.15;;;24.00;53.20;;;;;;5047608;28;20035;-82
2021/04/25 08:26:52;;;;;;;20.25;8.80;;;24.00;52.00;;;;;;5045793;28;20033;-81
2021/04/25 08:29:18;;;;;;;24.10;8.77;;;24.00;52.50;;;;;;5029365;28;20506;-80
2021/04/25 08:31:44;;;;;;;22.73;9.07;;;24.40;52.00;;;;;;5047501;28;20029;-81
2021/04/25 08:34:10;;;;;;;23.05;8.55;;;24.50;50.90;;;;;;5030239;28;20044;-81
2021/04/25 08:36:36;;;;;;;17.67;8.40;;;24.80;51.00;;;;;;5013257;28;20059;-82
2021/04/25 08:39:03;;;;;;;19.77;9.48;;;25.30;50.00;;;;;;5029275;28;20029;-80
2021/04/25 08:41:30;;;;;;;28.13;10.15;;;25.50;49.20;;;;;;5045715;28;20030;-81
2021/04/25 08:43:58;;;;;;;18.08;9.68;;;25.70;49.10;;;;;;5047498;28;20073;-81
2021/04/25 08:46:27;;;;;;;28.95;10.13;;;25.90;48.50;;;;;;5046414;28;20021;-82
2021/04/25 08:48:53;;;;;;;16.02;8.20;;;26.20;48.10;;;;;;5048194;28;20467;-82
2021/04/25 08:51:20;;;;;;;13.45;7.13;;;26.30;47.40;;;;;;5029105;28;20086;-82
2021/04/25 08:53:47;;;;;;;17.95;10.30;;;26.20;46.70;;;;;;5049393;28;20028;-81
2021/04/25 08:56:13;;;;;;;16.00;8.57;;;26.10;46.40;;;;;;5049404;28;20472;-82
2021/04/25 08:58:39;;;;;;;20.17;9.15;;;25.80;45.70;;;;;;5050693;28;20087;-81
2021/04/25 09:01:05;;;;;;;16.05;8.52;;;25.80;46.20;;;;;;5049390;28;20476;-78
2021/04/25 09:03:31;;;;;;;19.50;7.97;;;25.90;45.50;;;;;;5050196;28;20029;-83
2021/04/25 09:06:00;;;;;;;21.08;8.88;;;25.80;45.10;;;;;;5048831;28;20126;-82
2021/04/25 09:08:46;;;;;;;20.88;11.77;;;25.80;45.50;;;;;;5048886;28;20104;-83
2021/04/25 09:11:27;;;;;;;21.67;9.90;;;25.90;45.20;;;;;;5031873;28;20040;-82
2021/04/25 09:14:16;;;;;;;22.48;10.60;;;26.10;45.10;;;;;;5049811;28;20036;-83
2021/04/25 09:16:45;;;;;;;22.73;9.82;;;26.70;45.40;;;;;;5050145;28;20033;-83
2021/04/25 09:19:12;;;;;;;22.42;12.40;;;27.30;44.90;;;;;;5050092;28;20033;-84
2021/04/25 09:22:01;;;;;;;19.55;10.80;;;27.60;44.50;;;;;;5048557;28;20434;-84
2021/04/25 09:24:31;;;;;;;19.77;11.35;;;27.20;43.30;;;;;;5051000;28;20041;-84
2021/04/25 09:26:58;;;;;;;20.65;11.35;;;27.00;43.00;;;;;;5050426;28;20422;-83
2021/04/25 09:29:26;;;;;;;21.73;11.18;;;26.60;42.90;;;;;;5051969;28;20026;-84
2021/04/25 09:31:54;;;;;;;17.90;11.05;;;26.40;43.20;;;;;;5033268;28;20430;-79
2021/04/25 09:34:28;;;;;;;19.63;9.88;;;26.30;42.90;;;;;;5051824;28;20396;-83
2021/04/25 09:36:55;;;;;;;16.63;10.18;;;26.50;43.20;;;;;;5050027;28;20514;-85
2021/04/25 09:39:22;;;;;;;17.02;9.18;;;26.80;42.70;;;;;;5050154;28;20041;-83
2021/04/25 09:41:49;;;;;;;18.92;8.52;;;26.80;42.20;;;;;;5050742;28;20422;-85
2021/04/25 09:44:33;;;;;;;16.25;8.77;;;26.80;42.30;;;;;;5049569;28;20041;-81
2021/04/25 09:47:02;;;;;;;12.65;6.03;;;27.00;42.10;;;;;;5049566;28;20024;-84
2021/04/25 09:49:44;;;;;;;16.85;8.07;;;27.20;42.30;;;;;;5048798;28;20029;-84
2021/04/25 09:52:13;;;;;;;15.15;6.72;;;27.30;41.30;;;;;;5050957;28;20447;-83
2021/04/25 09:54:40;;;;;;;13.50;6.25;;;27.20;41.70;;;;;;5051889;28;20452;-84
2021/04/25 09:57:07;;;;;;;16.63;6.10;;;27.10;41.60;;;;;;5049218;28;20507;-83
2021/04/25 09:59:50;;;;;;;13.68;4.70;;;27.30;41.40;;;;;;5049194;28;20052;-83
2021/04/25 10:02:16;;;;;;;10.68;4.93;;;27.40;40.90;;;;;;5048477;28;20025;-83
2021/04/25 10:04:42;;;;;;;13.15;4.63;;;27.30;41.00;;;;;;5047408;28;20040;-83
2021/04/25 10:07:12;;;;;;;13.27;5.35;;;27.40;41.00;;;;;;5048553;28;20102;-84
2021/04/25 10:09:38;;;;;;;13.30;4.20;;;27.30;40.70;;;;;;5049799;28;20017;-85
2021/04/25 10:12:04;;;;;;;14.55;5.03;;;27.40;40.70;;;;;;5030999;28;20040;-82
2021/04/25 10:14:32;;;;;;;10.60;5.10;;;27.40;40.00;;;;;;5048211;28;20051;-83
2021/04/25 10:16:59;;;;;;;11.00;5.10;;;27.50;40.30;;;;;;5047546;28;20045;-80
2021/04/25 10:19:25;;;;;;;11.38;4.28;;;27.40;40.00;;;;;;5047860;28;20033;-83
2021/04/25 10:21:52;;;;;;;10.85;4.82;;;27.30;39.80;;;;;;5047281;28;20037;-82
2021/04/25 10:24:20;;;;;;;14.13;4.38;;;27.40;40.00;;;;;;5047304;28;20037;-82
2021/04/25 10:27:04;;;;;;;13.13;5.47;;;27.80;40.40;;;;;;5048429;28;20029;-83
2021/04/25 10:29:44;;;;;;;15.10;6.72;;;28.00;39.60;;;;;;5048137;28;20021;-82
2021/04/25 10:32:11;;;;;;;17.00;5.82;;;27.90;39.40;;;;;;5046291;28;20025;-82
2021/04/25 10:34:37;;;;;;;9.82;5.63;;;28.00;39.70;;;;;;5047272;28;20048;-82
2021/04/25 10:37:11;;;;;;;19.58;6.72;;;28.20;39.80;;;;;;5030710;28;20131;-84
2021/04/25 10:39:41;;;;;;;11.25;6.00;;;28.30;39.40;;;;;;5046420;28;20028;-85
2021/04/25 10:45:16;;;;;;;14.15;7.40;;;28.10;38.90;;;;;;5048134;28;20045;-85
2021/04/25 10:47:43;;;;;;;9.57;5.78;;;28.10;39.20;;;;;;5046711;28;20033;-85
2021/04/25 10:50:15;;;;;;;16.88;6.57;;;28.00;39.40;;;;;;5029891;28;20087;-84
2021/04/25 10:52:43;;;;;;;13.25;6.30;;;28.00;39.20;;;;;;5047977;28;20032;-84
2021/04/25 10:55:12;;;;;;;14.95;6.18;;;28.10;39.20;;;;;;5047221;28;20044;-84
2021/04/25 10:57:53;;;;;;;19.63;5.70;;;28.20;39.00;;;;;;5046537;28;20029;-84
2021/04/25 11:00:38;;;;;;;13.45;6.35;;;28.10;38.70;;;;;;5046468;28;20378;-86
2021/04/25 11:03:05;;;;;;;13.40;7.57;;;28.30;39.30;;;;;;5046228;28;20049;-84
2021/04/25 11:05:42;;;;;;;10.40;6.13;;;28.60;39.10;;;;;;5047553;28;20037;-84
2021/04/25 11:08:14;;;;;;;15.50;7.60;;;28.60;39.00;;;;;;5047620;28;20017;-83
2021/04/25 11:10:52;;;;;;;19.70;7.72;;;28.70;38.30;;;;;;5045901;28;20016;-82
2021/04/25 11:13:45;;;;;;;15.35;6.57;;;28.60;38.40;;;;;;5045890;28;20032;-85
2021/04/25 11:16:15;;;;;;;11.43;5.63;;;28.40;38.50;;;;;;5046374;28;20542;-85
2021/04/25 11:18:58;;;;;;;14.18;6.97;;;28.60;38.30;;;;;;5045978;28;20476;-84
2021/04/25 11:21:27;;;;;;;13.55;5.00;;;29.00;38.50;;;;;;5045547;28;20116;-84
2021/04/25 11:24:16;;;;;;;14.32;5.10;;;29.60;37.90;;;;;;5045729;28;20476;-83
2021/04/25 11:26:47;;;;;;;11.95;5.53;;;29.70;37.60;;;;;;5045147;28;20033;-86
2021/04/25 11:29:43;;;;;;;11.35;5.43;;;29.60;37.20;;;;;;5045245;28;20021;-83
2021/04/25 11:32:29;;;;;;;13.65;4.95;;;29.40;36.70;;;;;;5046295;28;20029;-82
2021/04/25 11:35:08;;;;;;;13.95;5.53;;;28.80;36.60;;;;;;5045037;28;20060;-84
2021/04/25 11:37:34;;;;;;;12.88;5.53;;;28.30;37.10;;;;;;5045147;28;20396;-84
2021/04/25 11:40:06;;;;;;;13.15;5.63;;;28.60;37.40;;;;;;5045109;28;20033;-83
2021/04/25 11:42:49;;;;;;;13.93;6.95;;;28.60;37.30;;;;;;5047135;28;20446;-85
2021/04/25 11:45:27;;;;;;;16.10;7.45;;;28.70;36.90;;;;;;5046309;28;20037;-83
2021/04/25 11:48:02;;;;;;;10.52;5.45;;;28.40;36.80;;;;;;5044906;28;20048;-83
2021/04/25 11:50:33;;;;;;;18.25;5.32;;;28.20;37.30;;;;;;5044803;28;20306;-84
2021/04/25 11:52:59;;;;;;;12.73;6.18;;;28.30;37.40;;;;;;5046195;28;20422;-84
2021/04/25 11:55:25;;;;;;;12.88;5.97;;;28.50;37.20;;;;;;5046948;28;20171;-85
2021/04/25 11:57:52;;;;;;;13.93;5.45;;;28.50;36.70;;;;;;5044614;28;20059;-84
2021/04/25 12:00:22;;;;;;;10.70;5.88;;;28.40;36.60;;;;;;5028797;28;20029;-85
2021/04/25 12:03:05;;;;;;;11.13;6.05;;;28.30;36.40;;;;;;5046321;28;20021;-84
2021/04/25 12:05:37;;;;;;;13.52;6.93;;;28.40;36.50;;;;;;5046140;28;20079;-84
2021/04/25 12:08:06;;;;;;;14.55;5.00;;;28.30;36.30;;;;;;5045843;28;20033;-85
2021/04/25 12:10:39;;;;;;;12.30;5.57;;;28.00;36.70;;;;;;5046057;28;20025;-85
2021/04/25 12:13:19;;;;;;;16.85;6.28;;;27.90;36.70;;;;;;5044628;28;20668;-84
2021/04/25 12:15:46;;;;;;;13.10;5.93;;;27.80;36.80;;;;;;5044928;28;20033;-84
2021/04/25 12:18:12;;;;;;;14.57;5.55;;;27.70;36.90;;;;;;5043817;28;20440;-83
2021/04/25 12:20:44;;;;;;;11.95;6.10;;;27.20;36.60;;;;;;5027671;28;20038;-82
2021/04/25 12:23:15;;;;;;;12.43;6.18;;;26.90;37.00;;;;;;5044737;28;20457;-83
2021/04/25 12:25:41;;;;;;;12.75;5.28;;;26.70;37.00;;;;;;5044253;28;20071;-83
2021/04/25 12:28:07;;;;;;;10.75;4.55;;;26.50;37.40;;;;;;5048131;28;20078;-83
2021/04/25 12:30:33;;;;;;;16.25;5.18;;;26.40;37.20;;;;;;5050909;28;20468;-84
2021/04/25 12:33:05;;;;;;;7.72;4.55;;;26.30;37.20;;;;;;5048888;28;20025;-84
2021/04/25 12:35:44;;;;;;;11.57;5.68;;;26.30;37.00;;;;;;5050383;28;20060;-83
2021/04/25 12:38:22;;;;;;;10.57;5.05;;;26.20;36.90;;;;;;5050015;28;20029;-85
2021/04/25 12:40:55;;;;;;;12.95;5.32;;;26.20;37.60;;;;;;5049980;28;20070;-82
2021/04/25 12:43:21;;;;;;;16.17;5.93;;;26.10;37.30;;;;;;5049303;28;20685;-82